Time;durP1;ratioP1;P1;durP2;ratioP2;P2;SDS_P1;SDS_P2;PMS_P1;PMS_P2;Temp;Humidity;BMP_temperature;BMP_pressure;BME280_temperature;BME280_humidity;BME280_pressure;Samples;Min_cycle;Max_cycle;Signal;HPM_P1;HPM_P2
2022/11/17 00:00:24;;;;;;;9.73;7.60;;;6.00;99.90;;;;;;5053945;28;20470;-56
2022/11/17 00:02:52;;;;;;;9.03;7.00;;;6.00;99.90;;;;;;5055455;28;20475;-56
2022/11/17 00:05:20;;;;;;;10.23;7.63;;;6.00;99.90;;;;;;5059745;28;20838;-56
2022/11/17 00:07:48;;;;;;;10.53;8.40;;;5.90;99.90;;;;;;5054165;28;20246;-56
2022/11/17 00:10:17;;;;;;;9.03;7.27;;;5.90;99.90;;;;;;5054297;28;21257;-55
2022/11/17 00:15:32;;;;;;;9.90;7.50;;;6.00;99.90;;;;;;5053794;28;20478;-56
2022/11/17 00:23:45;;;;;;;10.30;7.67;;;5.90;99.90;;;;;;5040859;28;20485;-56
2022/11/17 00:26:15;;;;;;;9.07;7.20;;;5.90;99.90;;;;;;5053671;28;20469;-56
2022/11/17 00:28:45;;;;;;;10.37;7.50;;;5.90;99.90;;;;;;5053795;28;20224;-56
2022/11/17 00:34:05;;;;;;;9.57;7.33;;;5.90;99.90;;;;;;5031865;28;20706;-56
2022/11/17 00:36:36;;;;;;;9.50;7.67;;;5.90;99.90;;;;;;5053532;28;20227;-55
2022/11/17 00:39:05;;;;;;;9.03;7.83;;;5.90;99.90;;;;;;5053657;28;20230;-56
2022/11/17 00:41:33;;;;;;;10.40;7.97;;;5.90;99.90;;;;;;5053279;28;20219;-56
2022/11/17 00:44:02;;;;;;;7.60;6.80;;;5.90;99.90;;;;;;5055792;28;20274;-56
2022/11/17 00:46:30;;;;;;;9.80;8.23;;;6.00;99.90;;;;;;5053407;28;20825;-56
2022/11/17 00:48:59;;;;;;;9.03;7.47;;;5.90;99.90;;;;;;5059270;28;20461;-57
2022/11/17 00:51:27;;;;;;;11.43;7.67;;;5.90;99.90;;;;;;5053014;28;20235;-57
2022/11/17 00:53:55;;;;;;;9.40;7.87;;;5.90;99.90;;;;;;5053181;28;20235;-56
2022/11/17 00:56:25;;;;;;;8.83;7.93;;;5.90;99.90;;;;;;5053547;28;20633;-56
2022/11/17 00:58:53;;;;;;;9.60;8.20;;;5.90;99.90;;;;;;5053163;28;20520;-56
2022/11/17 01:01:23;;;;;;;9.50;8.03;;;5.90;99.90;;;;;;5053626;28;20481;-56
2022/11/17 01:04:01;;;;;;;11.03;8.37;;;5.90;99.90;;;;;;5072833;28;20765;-55
2022/11/17 01:06:32;;;;;;;9.10;7.17;;;5.90;99.90;;;;;;5052718;28;20469;-56
2022/11/17 01:09:01;;;;;;;12.63;8.10;;;5.90;99.90;;;;;;5053186;28;21046;-56
2022/11/17 01:11:29;;;;;;;8.97;7.73;;;5.90;99.90;;;;;;5052628;28;20235;-56
2022/11/17 01:14:00;;;;;;;11.37;8.37;;;5.90;99.90;;;;;;5055749;28;20232;-56
2022/11/17 01:16:30;;;;;;;12.73;9.00;;;5.90;99.90;;;;;;5052199;28;20227;-57
2022/11/17 01:19:00;;;;;;;10.70;8.80;;;5.90;99.90;;;;;;5059244;28;20261;-56
2022/11/17 01:21:30;;;;;;;12.13;8.87;;;5.80;99.90;;;;;;5053046;28;20216;-56
2022/11/17 01:24:00;;;;;;;10.03;8.33;;;5.90;99.90;;;;;;5053194;28;20698;-56
2022/11/17 01:26:30;;;;;;;9.60;8.60;;;5.80;99.90;;;;;;5052969;28;20979;-55
2022/11/17 01:28:59;;;;;;;12.73;9.03;;;5.80;99.90;;;;;;5053103;28;20227;-56
2022/11/17 01:31:30;;;;;;;13.43;8.17;;;5.80;99.90;;;;;;5053840;28;20489;-55
2022/11/17 01:33:58;;;;;;;11.60;9.13;;;5.80;99.90;;;;;;5072975;28;20454;-56
2022/11/17 01:36:29;;;;;;;10.77;8.23;;;5.80;99.90;;;;;;5052621;28;20459;-56
2022/11/17 01:38:57;;;;;;;12.73;9.67;;;5.80;99.90;;;;;;5052659;28;20486;-56
2022/11/17 01:41:27;;;;;;;13.37;9.30;;;5.80;99.90;;;;;;5052531;28;20964;-54
2022/11/17 01:43:57;;;;;;;11.13;8.40;;;5.80;99.90;;;;;;5054935;28;20535;-56
2022/11/17 01:46:31;;;;;;;10.83;8.57;;;5.80;99.90;;;;;;5052941;28;20874;-56
2022/11/17 01:49:04;;;;;;;11.60;9.23;;;5.80;99.90;;;;;;5058886;28;21072;-56
2022/11/17 01:51:35;;;;;;;11.37;9.20;;;5.80;99.90;;;;;;5052785;28;20556;-56
2022/11/17 01:54:03;;;;;;;10.50;8.97;;;5.80;99.90;;;;;;5052886;28;21030;-56
2022/11/17 01:56:37;;;;;;;11.77;8.97;;;5.80;99.90;;;;;;5052962;28;20489;-55
2022/11/17 01:59:09;;;;;;;11.37;8.80;;;5.80;99.90;;;;;;5052870;28;20802;-56
2022/11/17 02:01:54;;;;;;;10.83;9.27;;;5.80;99.90;;;;;;5054578;28;20478;-55
2022/11/17 02:04:26;;;;;;;12.77;9.70;;;5.80;99.90;;;;;;5072202;28;20471;-56
2022/11/17 02:06:59;;;;;;;12.13;7.83;;;5.70;99.90;;;;;;5054606;28;20485;-56
2022/11/17 02:09:28;;;;;;;11.50;8.90;;;5.80;99.90;;;;;;5032328;28;20574;-56
2022/11/17 02:11:58;;;;;;;11.77;9.60;;;5.80;99.90;;;;;;5032517;28;20494;-56
2022/11/17 02:14:26;;;;;;;8.83;6.33;;;5.80;99.90;;;;;;5051238;28;20460;-56
2022/11/17 02:16:56;;;;;;;14.40;9.73;;;5.70;99.90;;;;;;5052756;28;20527;-56
2022/11/17 02:19:37;;;;;;;13.13;9.57;;;5.70;99.90;;;;;;5047022;28;20469;-56
2022/11/17 02:22:28;;;;;;;10.93;9.00;;;5.70;99.90;;;;;;5052460;28;20234;-56
2022/11/17 02:25:20;;;;;;;12.60;8.40;;;5.70;99.90;;;;;;5043885;28;20235;-56
2022/11/17 02:28:07;;;;;;;12.17;9.73;;;5.70;99.90;;;;;;5056053;28;20476;-56
2022/11/17 02:30:41;;;;;;;11.27;8.87;;;5.70;99.90;;;;;;5055586;28;20480;-55
2022/11/17 02:33:15;;;;;;;12.93;10.03;;;5.70;99.90;;;;;;5056232;28;20239;-56
2022/11/17 02:35:49;;;;;;;8.73;7.47;;;5.70;99.90;;;;;;5062115;28;20472;-55
2022/11/17 02:38:27;;;;;;;11.17;9.63;;;5.70;99.90;;;;;;5048987;28;20477;-56
2022/11/17 02:41:02;;;;;;;12.63;9.17;;;5.60;99.90;;;;;;5056098;28;20235;-55
2022/11/17 02:46:23;;;;;;;12.00;10.10;;;5.70;99.90;;;;;;5049534;28;20477;-56
2022/11/17 02:48:56;;;;;;;12.23;9.33;;;5.60;99.90;;;;;;5061455;28;20270;-56
2022/11/17 02:51:25;;;;;;;12.30;10.63;;;5.70;99.90;;;;;;5055661;28;20220;-56
2022/11/17 02:53:56;;;;;;;11.40;9.73;;;5.60;99.90;;;;;;5055572;28;20541;-55
2022/11/17 02:56:24;;;;;;;11.47;9.63;;;5.60;99.90;;;;;;5055856;28;20470;-55
2022/11/17 02:58:58;;;;;;;10.67;8.83;;;5.60;99.90;;;;;;5065318;28;20469;-55
2022/11/17 03:01:45;;;;;;;6.67;5.43;;;5.60;99.90;;;;;;5059473;28;20470;-55
2022/11/17 03:04:30;;;;;;;11.60;9.13;;;5.60;99.90;;;;;;5056847;28;20243;-56
2022/11/17 03:07:10;;;;;;;10.60;8.23;;;5.60;99.90;;;;;;5056531;28;20682;-56
2022/11/17 03:09:49;;;;;;;10.53;9.30;;;5.60;99.90;;;;;;5055357;28;20501;-56
2022/11/17 03:12:23;;;;;;;12.67;9.80;;;5.60;99.90;;;;;;5055676;28;20231;-56
2022/11/17 03:15:02;;;;;;;11.60;9.13;;;5.50;99.90;;;;;;5057369;28;20470;-56
2022/11/17 03:17:37;;;;;;;11.30;9.00;;;5.50;99.90;;;;;;5058974;28;20461;-55
2022/11/17 03:20:12;;;;;;;9.07;7.93;;;5.50;99.90;;;;;;5055377;28;20473;-56
2022/11/17 03:22:48;;;;;;;10.93;8.90;;;5.50;99.90;;;;;;5055180;28;20465;-56
2022/11/17 03:25:22;;;;;;;12.37;9.37;;;5.50;99.90;;;;;;5055424;28;20469;-54
2022/11/17 03:27:54;;;;;;;11.27;9.70;;;5.50;99.90;;;;;;5055533;28;20469;-55
2022/11/17 03:30:25;;;;;;;11.73;9.53;;;5.50;99.90;;;;;;5073445;28;21058;-56
2022/11/17 03:33:01;;;;;;;10.13;9.00;;;5.50;99.90;;;;;;5075141;28;20545;-56
2022/11/17 03:35:31;;;;;;;9.80;8.40;;;5.50;99.90;;;;;;5068253;28;20468;-55
2022/11/17 03:38:04;;;;;;;10.00;9.00;;;5.50;99.90;;;;;;5054443;28;20476;-55
2022/11/17 03:40:35;;;;;;;10.60;9.07;;;5.50;99.90;;;;;;5054028;28;20535;-54
2022/11/17 03:43:07;;;;;;;11.40;9.73;;;5.50;99.90;;;;;;5056998;28;20476;-55
2022/11/17 03:45:40;;;;;;;10.80;8.87;;;5.40;99.90;;;;;;5053165;28;20477;-55
2022/11/17 03:48:14;;;;;;;10.30;9.23;;;5.40;99.90;;;;;;5060887;28;20273;-56
2022/11/17 03:50:47;;;;;;;10.90;9.60;;;5.50;99.90;;;;;;5054294;28;20257;-55
2022/11/17 03:53:16;;;;;;;11.80;8.73;;;5.50;99.90;;;;;;5054317;28;20540;-55
2022/11/17 03:55:54;;;;;;;8.77;7.43;;;5.40;99.90;;;;;;5054396;28;20463;-56
2022/11/17 03:58:24;;;;;;;10.87;9.73;;;5.50;99.90;;;;;;5055162;28;20471;-55
2022/11/17 04:00:55;;;;;;;9.80;8.80;;;5.40;99.90;;;;;;5074027;28;20481;-55
2022/11/17 04:03:23;;;;;;;8.63;7.23;;;5.50;99.90;;;;;;5074219;28;20477;-55
2022/11/17 04:05:51;;;;;;;10.53;9.43;;;5.40;99.90;;;;;;5074505;28;20515;-56
2022/11/17 04:08:22;;;;;;;9.77;8.50;;;5.40;99.90;;;;;;5074442;28;20550;-55
2022/11/17 04:16:22;;;;;;;10.27;9.07;;;5.30;99.90;;;;;;5047612;28;20492;-54
2022/11/17 04:18:51;;;;;;;10.00;9.00;;;5.30;99.90;;;;;;5061859;28;20999;-56
2022/11/17 04:21:25;;;;;;;10.20;9.13;;;5.30;99.90;;;;;;5053942;28;20957;-55
2022/11/17 04:23:53;;;;;;;10.00;8.10;;;5.30;99.90;;;;;;5053722;28;20527;-55
2022/11/17 04:29:07;;;;;;;10.57;8.87;;;5.30;99.90;;;;;;5053936;28;20535;-55
2022/11/17 04:31:36;;;;;;;11.67;9.10;;;5.30;99.90;;;;;;5053345;28;20486;-55
2022/11/17 04:34:06;;;;;;;11.10;7.93;;;5.30;99.90;;;;;;5053985;28;20979;-55
2022/11/17 04:36:39;;;;;;;9.03;7.93;;;5.30;99.90;;;;;;5053460;28;20469;-55
2022/11/17 04:39:07;;;;;;;11.93;8.30;;;5.30;99.90;;;;;;5053466;28;20977;-53
2022/11/17 04:41:53;;;;;;;10.00;7.47;;;5.20;99.90;;;;;;5053383;28;20469;-55
2022/11/17 04:44:23;;;;;;;9.77;8.77;;;5.20;99.90;;;;;;5055838;28;20552;-55
2022/11/17 04:46:53;;;;;;;10.30;8.10;;;5.20;99.90;;;;;;5053380;28;20466;-55
2022/11/17 04:49:22;;;;;;;11.93;8.50;;;5.20;99.90;;;;;;5058351;28;20493;-55
2022/11/17 04:51:51;;;;;;;9.80;7.33;;;5.20;99.90;;;;;;5054472;28;20458;-56
2022/11/17 04:54:23;;;;;;;8.90;7.90;;;5.20;99.90;;;;;;5048919;28;20832;-55
2022/11/17 04:56:52;;;;;;;8.73;7.83;;;5.20;99.90;;;;;;5052442;28;20465;-55
2022/11/17 04:59:21;;;;;;;9.77;8.70;;;5.20;99.90;;;;;;5053203;28;20477;-55
2022/11/17 05:01:49;;;;;;;9.30;8.20;;;5.20;99.90;;;;;;5054152;28;20477;-55
2022/11/17 05:07:02;;;;;;;8.60;7.70;;;5.20;99.90;;;;;;5052765;28;20469;-55
2022/11/17 05:09:31;;;;;;;9.47;8.47;;;5.20;99.90;;;;;;5053152;28;20952;-55
2022/11/17 05:14:46;;;;;;;9.60;7.40;;;5.10;99.90;;;;;;5059331;28;20460;-55
2022/11/17 05:17:13;;;;;;;10.07;8.60;;;5.20;99.90;;;;;;5055360;28;20463;-55
2022/11/17 05:19:44;;;;;;;9.90;8.33;;;5.20;99.90;;;;;;5053780;28;20481;-61
2022/11/17 05:25:00;;;;;;;10.83;8.83;;;5.10;99.90;;;;;;5054086;28;20478;-61
2022/11/17 05:27:28;;;;;;;11.20;8.97;;;5.10;99.90;;;;;;5051246;28;20474;-61
2022/11/17 05:29:57;;;;;;;10.07;8.23;;;5.10;99.90;;;;;;5052778;28;20474;-61
2022/11/17 05:32:25;;;;;;;10.83;8.40;;;5.10;99.90;;;;;;5056483;28;20491;-60
2022/11/17 05:34:54;;;;;;;9.87;8.50;;;5.10;99.90;;;;;;5054664;28;20485;-61
2022/11/17 05:37:22;;;;;;;9.23;7.97;;;5.10;99.90;;;;;;5061760;28;20473;-61
2022/11/17 05:39:50;;;;;;;9.13;7.83;;;5.10;99.90;;;;;;5052440;28;20458;-61
2022/11/17 05:42:18;;;;;;;10.67;7.20;;;5.10;99.90;;;;;;5052444;28;20471;-59
2022/11/17 05:44:47;;;;;;;10.60;8.80;;;5.10;99.90;;;;;;5051956;28;20798;-61
2022/11/17 05:47:16;;;;;;;10.77;8.73;;;5.10;99.90;;;;;;5054420;28;20476;-62
2022/11/17 05:49:44;;;;;;;8.90;7.37;;;5.00;99.90;;;;;;5053831;28;20465;-60
2022/11/17 05:52:13;;;;;;;9.73;8.47;;;5.10;99.90;;;;;;5052589;28;20956;-61
2022/11/17 05:54:41;;;;;;;9.53;7.93;;;5.00;99.90;;;;;;5052272;28;20550;-61
2022/11/17 05:57:13;;;;;;;9.87;8.13;;;5.00;99.90;;;;;;5052623;28;20489;-61
2022/11/17 05:59:45;;;;;;;10.40;7.80;;;5.10;99.90;;;;;;5051980;28;20938;-61
2022/11/17 06:02:17;;;;;;;8.10;7.17;;;5.10;99.90;;;;;;5053395;28;20544;-61
2022/11/17 06:04:48;;;;;;;11.70;9.53;;;5.10;99.90;;;;;;5056111;28;20487;-61
2022/11/17 06:07:19;;;;;;;11.47;9.90;;;5.00;99.90;;;;;;5070884;28;20525;-61
2022/11/17 06:09:47;;;;;;;10.07;9.07;;;5.00;99.90;;;;;;5076024;28;20518;-61
2022/11/17 06:12:15;;;;;;;11.53;9.17;;;5.00;99.90;;;;;;5076062;28;20470;-61
2022/11/17 06:14:43;;;;;;;11.63;9.60;;;5.00;99.90;;;;;;5066835;28;20552;-61
2022/11/17 06:17:17;;;;;;;10.13;8.83;;;5.00;99.90;;;;;;5075986;28;20813;-61
2022/11/17 06:19:54;;;;;;;10.73;9.13;;;5.00;99.90;;;;;;5065698;28;20464;-61
2022/11/17 06:22:25;;;;;;;13.20;10.50;;;5.00;99.90;;;;;;5055976;28;20826;-61
2022/11/17 06:24:54;;;;;;;11.53;9.93;;;5.00;99.90;;;;;;5057352;28;21008;-61
2022/11/17 06:27:24;;;;;;;11.53;8.90;;;5.00;99.90;;;;;;5059322;28;20473;-61
2022/11/17 06:29:53;;;;;;;12.50;10.20;;;5.00;99.90;;;;;;5059554;28;20484;-61
2022/11/17 06:32:22;;;;;;;12.63;10.13;;;5.00;99.90;;;;;;5063067;28;20484;-61
2022/11/17 06:34:50;;;;;;;12.27;10.80;;;5.00;99.90;;;;;;5067112;28;20484;-61
2022/11/17 06:37:25;;;;;;;12.57;10.43;;;5.00;99.90;;;;;;5060005;28;20474;-61
2022/11/17 06:39:53;;;;;;;12.03;10.10;;;4.90;99.90;;;;;;5057285;28;20475;-61
2022/11/17 06:43:02;;;;;;;12.63;10.60;;;4.90;99.90;;;;;;5058491;28;20536;-60
2022/11/17 06:45:11;;;;;;;11.80;10.37;;;5.00;99.90;;;;;;5054715;28;20501;-61
2022/11/17 06:47:39;;;;;;;15.33;10.53;;;5.00;99.90;;;;;;5055175;28;20468;-61
2022/11/17 06:50:08;;;;;;;12.60;9.87;;;4.90;99.90;;;;;;5055236;28;20512;-61
2022/11/17 06:52:38;;;;;;;12.70;11.27;;;4.90;99.90;;;;;;5060551;28;20470;-61
2022/11/17 06:55:07;;;;;;;12.03;10.80;;;4.90;99.90;;;;;;5055413;28;20469;-61
2022/11/17 06:57:35;;;;;;;12.97;11.50;;;4.90;99.90;;;;;;5063502;28;20470;-60
2022/11/17 07:00:05;;;;;;;13.30;11.53;;;4.90;99.90;;;;;;5067646;28;20465;-61
2022/11/17 07:02:35;;;;;;;11.73;10.43;;;4.90;99.90;;;;;;5055503;28;20882;-61
2022/11/17 07:05:03;;;;;;;11.63;10.43;;;4.90;99.90;;;;;;5057004;28;20487;-62
2022/11/17 07:07:31;;;;;;;12.87;10.97;;;4.90;99.90;;;;;;5054950;28;20479;-62
2022/11/17 07:10:01;;;;;;;13.10;11.70;;;4.90;99.90;;;;;;5054371;28;20565;-61
2022/11/17 07:12:29;;;;;;;13.20;10.43;;;4.90;99.90;;;;;;5056473;28;20509;-61
2022/11/17 07:14:57;;;;;;;13.43;11.67;;;4.90;99.90;;;;;;5056213;28;20489;-62
2022/11/17 07:17:25;;;;;;;13.80;11.33;;;4.90;99.90;;;;;;5053825;28;21054;-61
2022/11/17 07:19:54;;;;;;;10.10;8.40;;;4.90;99.90;;;;;;5059663;28;20534;-62
2022/11/17 07:22:22;;;;;;;11.20;10.00;;;4.90;99.90;;;;;;5053883;28;20458;-62
2022/11/17 07:24:50;;;;;;;14.30;11.63;;;4.90;99.90;;;;;;5054105;28;21017;-62
2022/11/17 07:27:19;;;;;;;13.23;10.83;;;4.80;99.90;;;;;;5055192;28;20556;-62
2022/11/17 07:29:48;;;;;;;13.40;12.00;;;4.90;99.90;;;;;;5053949;28;20564;-62
2022/11/17 07:32:16;;;;;;;15.33;12.67;;;4.80;99.90;;;;;;5052928;28;20481;-61
2022/11/17 07:34:44;;;;;;;14.70;12.27;;;4.80;99.90;;;;;;5053599;28;20506;-61
2022/11/17 07:37:12;;;;;;;13.30;11.90;;;4.80;99.90;;;;;;5054003;28;20877;-62
2022/11/17 07:39:40;;;;;;;12.23;9.30;;;4.80;99.90;;;;;;5054053;28;20470;-62
2022/11/17 07:42:08;;;;;;;13.37;11.53;;;4.90;99.90;;;;;;5053778;28;20462;-62
2022/11/17 07:44:37;;;;;;;15.57;12.47;;;4.90;99.90;;;;;;5055849;28;20545;-62
2022/11/17 07:47:06;;;;;;;13.10;10.40;;;4.90;99.90;;;;;;5057055;28;20457;-61
2022/11/17 07:49:34;;;;;;;12.40;10.97;;;4.80;99.90;;;;;;5057132;28;20466;-61
2022/11/17 07:52:02;;;;;;;13.40;12.00;;;4.80;99.90;;;;;;5053701;28;20472;-61
2022/11/17 07:54:30;;;;;;;14.13;12.20;;;4.80;99.90;;;;;;5058930;28;20488;-61
2022/11/17 07:56:58;;;;;;;17.03;12.70;;;4.80;99.90;;;;;;5058306;28;20978;-61
2022/11/17 07:59:26;;;;;;;13.93;9.93;;;4.80;99.90;;;;;;5054349;28;20471;-60
2022/11/17 08:01:55;;;;;;;13.23;11.23;;;4.80;99.90;;;;;;5053743;28;20499;-61
2022/11/17 08:04:23;;;;;;;13.63;11.00;;;4.80;99.90;;;;;;5055756;28;20559;-61
2022/11/17 08:06:51;;;;;;;13.37;11.37;;;4.80;99.90;;;;;;5052143;28;20565;-59
2022/11/17 08:09:20;;;;;;;13.80;11.63;;;4.80;99.90;;;;;;5056920;28;20487;-61
2022/11/17 08:11:48;;;;;;;12.70;11.07;;;4.80;99.90;;;;;;5052958;28;20477;-61
2022/11/17 08:14:16;;;;;;;11.17;9.27;;;4.80;99.90;;;;;;5050822;28;20840;-61
2022/11/17 08:16:44;;;;;;;12.90;10.80;;;4.80;99.90;;;;;;5053834;28;20862;-62
2022/11/17 08:19:14;;;;;;;10.37;8.03;;;4.80;99.90;;;;;;5055479;28;20472;-60
2022/11/17 08:21:42;;;;;;;12.40;10.67;;;4.80;99.90;;;;;;5055751;28;20831;-61
2022/11/17 08:24:12;;;;;;;15.23;11.37;;;4.80;99.90;;;;;;5051103;28;20484;-61
2022/11/17 08:26:40;;;;;;;12.80;11.00;;;4.80;99.90;;;;;;5053977;28;20472;-61
2022/11/17 08:29:08;;;;;;;13.23;11.47;;;4.90;99.90;;;;;;5050828;28;20895;-61
2022/11/17 08:31:36;;;;;;;10.57;7.17;;;4.80;99.90;;;;;;5055477;28;21092;-61
2022/11/17 08:34:05;;;;;;;11.30;9.37;;;4.80;99.90;;;;;;5056216;28;20653;-61
2022/11/17 08:36:34;;;;;;;14.00;10.20;;;4.80;99.90;;;;;;5052801;28;20999;-61
2022/11/17 08:39:03;;;;;;;11.47;8.87;;;4.80;99.90;;;;;;5053156;28;20516;-60
2022/11/17 08:41:31;;;;;;;12.63;11.00;;;4.80;99.90;;;;;;5053435;28;20471;-61
2022/11/17 08:44:00;;;;;;;14.43;12.20;;;4.80;99.90;;;;;;5051407;28;21361;-61
2022/11/17 08:46:28;;;;;;;14.37;11.53;;;4.70;99.90;;;;;;5055722;28;20473;-61
2022/11/17 08:48:56;;;;;;;14.20;11.33;;;4.70;99.90;;;;;;5054837;28;20471;-62
2022/11/17 08:51:25;;;;;;;14.30;10.53;;;4.70;99.90;;;;;;5054557;28;20475;-61
2022/11/17 08:53:56;;;;;;;15.03;12.23;;;4.70;99.90;;;;;;5051782;28;21088;-62
2022/11/17 08:56:25;;;;;;;15.17;11.77;;;4.70;99.90;;;;;;5052249;28;20477;-61
2022/11/17 08:58:53;;;;;;;11.90;10.67;;;4.60;99.90;;;;;;5052865;28;20479;-62
2022/11/17 09:01:21;;;;;;;10.33;7.97;;;4.60;99.90;;;;;;5053521;28;20482;-61
2022/11/17 09:03:49;;;;;;;12.10;9.80;;;4.70;99.90;;;;;;5052803;28;21008;-62
2022/11/17 09:06:18;;;;;;;12.50;8.97;;;4.70;99.90;;;;;;5051901;28;20551;-62
2022/11/17 09:08:47;;;;;;;15.57;11.97;;;4.70;99.90;;;;;;5052737;28;20464;-62
2022/11/17 09:11:17;;;;;;;13.50;9.37;;;4.70;99.90;;;;;;5053115;28;20474;-62
2022/11/17 09:13:45;;;;;;;10.43;8.33;;;4.70;99.90;;;;;;5050814;28;20489;-60
2022/11/17 09:16:14;;;;;;;14.30;11.07;;;4.70;99.90;;;;;;5054560;28;20539;-61
2022/11/17 09:18:45;;;;;;;14.27;11.50;;;4.60;99.90;;;;;;5050950;28;20493;-62
2022/11/17 09:21:15;;;;;;;10.50;7.97;;;4.70;99.90;;;;;;5054732;28;20473;-60
2022/11/17 09:23:44;;;;;;;14.73;11.93;;;4.60;99.90;;;;;;5052727;28;20466;-59
2022/11/17 09:26:13;;;;;;;14.10;11.67;;;4.60;99.90;;;;;;5051228;28;20471;-62
2022/11/17 09:28:43;;;;;;;15.30;12.83;;;4.50;99.90;;;;;;5052060;28;20488;-60
2022/11/17 09:31:13;;;;;;;14.57;11.57;;;4.50;99.90;;;;;;5051714;28;20481;-60
2022/11/17 09:33:43;;;;;;;14.67;11.23;;;4.50;99.90;;;;;;5053478;28;20838;-61
2022/11/17 09:36:12;;;;;;;16.03;12.40;;;4.60;99.90;;;;;;5053442;28;21007;-60
2022/11/17 09:38:41;;;;;;;15.17;12.63;;;4.50;99.90;;;;;;5053525;28;20486;-61
2022/11/17 09:41:21;;;;;;;16.20;12.17;;;4.50;99.90;;;;;;5053952;28;20473;-61
2022/11/17 09:44:02;;;;;;;12.03;8.57;;;4.50;99.90;;;;;;5050965;28;20494;-63
2022/11/17 09:46:46;;;;;;;12.07;9.50;;;4.50;99.90;;;;;;5052803;28;20482;-61
2022/11/17 09:49:23;;;;;;;14.83;12.13;;;4.50;99.90;;;;;;5052798;28;20480;-62
2022/11/17 09:51:51;;;;;;;17.50;12.43;;;4.50;99.90;;;;;;5053554;28;20987;-62
2022/11/17 09:54:26;;;;;;;16.50;12.23;;;4.50;99.90;;;;;;5051452;28;21018;-62
2022/11/17 09:56:57;;;;;;;16.70;13.70;;;4.60;99.90;;;;;;5055475;28;20473;-62
2022/11/17 09:59:29;;;;;;;15.23;12.70;;;4.50;99.90;;;;;;5053472;28;20480;-61
2022/11/17 10:01:58;;;;;;;14.20;10.97;;;4.50;99.90;;;;;;5054229;28;20573;-61
2022/11/17 10:04:29;;;;;;;17.67;13.40;;;4.50;99.90;;;;;;5048215;28;20996;-62
2022/11/17 10:06:58;;;;;;;11.73;8.50;;;4.50;99.90;;;;;;5051466;28;20488;-62
2022/11/17 10:09:36;;;;;;;14.33;10.47;;;4.50;99.90;;;;;;5050389;28;21559;-62
2022/11/17 10:12:16;;;;;;;15.77;11.97;;;4.50;99.90;;;;;;5054506;28;20477;-62
2022/11/17 10:14:47;;;;;;;16.27;13.07;;;4.50;99.90;;;;;;5054617;28;20487;-61
2022/11/17 10:17:16;;;;;;;13.70;10.00;;;4.50;99.90;;;;;;5052595;28;20479;-62
2022/11/17 10:19:45;;;;;;;15.73;12.80;;;4.50;99.90;;;;;;5051046;28;20502;-60
2022/11/17 10:22:27;;;;;;;13.23;10.23;;;4.60;99.90;;;;;;5049890;28;20475;-60
2022/11/17 10:24:57;;;;;;;16.10;12.93;;;4.50;99.90;;;;;;5052811;28;20545;-62
2022/11/17 10:27:27;;;;;;;13.70;9.80;;;4.50;99.90;;;;;;5050474;28;20980;-62
2022/11/17 10:30:01;;;;;;;17.87;13.07;;;4.50;99.90;;;;;;5053305;28;20468;-62
2022/11/17 10:32:31;;;;;;;17.50;14.00;;;4.50;99.90;;;;;;5052987;28;20479;-62
2022/11/17 10:35:14;;;;;;;16.23;11.83;;;4.50;99.90;;;;;;5053712;28;20498;-61
2022/11/17 10:37:51;;;;;;;18.17;14.23;;;4.50;99.90;;;;;;5054538;28;20835;-61
2022/11/17 10:40:20;;;;;;;17.87;13.90;;;4.50;99.90;;;;;;5054578;28;21007;-63
2022/11/17 10:43:02;;;;;;;18.10;13.70;;;4.50;99.90;;;;;;5051441;28;21564;-62
2022/11/17 10:45:33;;;;;;;17.10;13.47;;;4.50;99.90;;;;;;5051567;28;21004;-62
2022/11/17 10:48:22;;;;;;;16.73;13.37;;;4.50;99.90;;;;;;5051951;28;21535;-61
2022/11/17 10:50:52;;;;;;;18.03;13.83;;;4.50;99.90;;;;;;5059157;28;20480;-62
2022/11/17 10:53:30;;;;;;;15.00;11.87;;;4.50;99.90;;;;;;5056058;28;20480;-62
2022/11/17 10:56:12;;;;;;;16.70;13.13;;;4.50;99.90;;;;;;5056364;28;21005;-62
2022/11/17 10:59:00;;;;;;;16.23;13.27;;;4.50;99.90;;;;;;5057959;28;20553;-61
2022/11/17 11:01:33;;;;;;;16.83;12.67;;;4.50;99.90;;;;;;5056376;28;20481;-62
2022/11/17 11:04:03;;;;;;;17.43;13.83;;;4.60;99.90;;;;;;5057396;28;20578;-62
2022/11/17 11:06:32;;;;;;;15.40;13.17;;;4.50;99.90;;;;;;5055331;28;20468;-62
2022/11/17 11:09:04;;;;;;;19.13;14.10;;;4.60;99.90;;;;;;5057198;28;20968;-62
2022/11/17 11:11:43;;;;;;;18.03;15.23;;;4.50;99.90;;;;;;5053692;28;20476;-63
2022/11/17 11:14:31;;;;;;;18.40;14.87;;;4.50;99.90;;;;;;5052024;28;20475;-61
2022/11/17 11:17:06;;;;;;;16.17;14.43;;;4.50;99.90;;;;;;5054885;28;21032;-62
2022/11/17 11:19:34;;;;;;;15.87;13.23;;;4.60;99.90;;;;;;5052658;28;20460;-61
2022/11/17 11:22:18;;;;;;;17.00;13.50;;;4.60;99.90;;;;;;5055611;28;20470;-61
2022/11/17 11:24:55;;;;;;;17.27;14.13;;;4.60;99.90;;;;;;5056138;28;20891;-62
2022/11/17 11:27:48;;;;;;;15.23;12.10;;;4.60;99.90;;;;;;5053622;28;20453;-62
2022/11/17 11:30:18;;;;;;;16.13;13.23;;;4.60;99.90;;;;;;5050117;28;20472;-61
2022/11/17 11:33:00;;;;;;;17.70;15.40;;;4.60;99.90;;;;;;5053613;28;20548;-62
2022/11/17 11:35:44;;;;;;;17.30;13.97;;;4.60;99.90;;;;;;5056489;28;20490;-62
2022/11/17 11:38:27;;;;;;;16.77;14.47;;;4.60;99.90;;;;;;5058855;28;20473;-62
2022/11/17 11:41:19;;;;;;;15.93;14.20;;;4.60;99.90;;;;;;5058826;28;20842;-62
2022/11/17 11:43:59;;;;;;;15.57;13.53;;;4.60;99.90;;;;;;5053209;28;20576;-62
2022/11/17 11:46:37;;;;;;;15.87;14.03;;;4.60;99.90;;;;;;5055217;28;20461;-62
2022/11/17 11:49:15;;;;;;;18.70;13.90;;;4.70;99.90;;;;;;5052751;28;20975;-63
2022/11/17 11:51:46;;;;;;;14.63;12.70;;;4.70;99.90;;;;;;5055756;28;20586;-62
2022/11/17 11:54:19;;;;;;;16.50;12.87;;;4.70;99.90;;;;;;5056404;28;20490;-63
2022/11/17 11:56:48;;;;;;;15.00;12.43;;;4.70;99.90;;;;;;5052607;28;20493;-63
2022/11/17 11:59:21;;;;;;;16.87;13.97;;;4.70;99.90;;;;;;5054097;28;21049;-62
2022/11/17 12:02:01;;;;;;;15.33;11.80;;;4.60;99.90;;;;;;5053701;28;20490;-62
2022/11/17 12:04:40;;;;;;;16.57;12.60;;;4.70;99.90;;;;;;5055429;28;20488;-61
2022/11/17 12:07:17;;;;;;;14.00;12.23;;;4.60;99.90;;;;;;5052817;28;20473;-62
2022/11/17 12:09:51;;;;;;;14.77;12.83;;;4.70;99.90;;;;;;5051783;28;20553;-62
2022/11/17 12:12:27;;;;;;;16.90;13.23;;;4.70;99.90;;;;;;5053629;28;20579;-62
2022/11/17 12:15:12;;;;;;;14.83;13.13;;;4.70;99.90;;;;;;5053129;28;20484;-63
2022/11/17 12:17:58;;;;;;;15.63;12.90;;;4.70;99.90;;;;;;5055442;28;20525;-63
2022/11/17 12:20:54;;;;;;;15.97;13.30;;;4.70;99.90;;;;;;5054202;28;20477;-63
2022/11/17 12:23:38;;;;;;;14.50;12.13;;;4.70;99.90;;;;;;5050068;28;20471;-62
2022/11/17 12:26:06;;;;;;;16.50;13.20;;;4.70;99.90;;;;;;5054144;28;20467;-63
2022/11/17 12:28:36;;;;;;;17.43;14.10;;;4.70;99.90;;;;;;5052590;28;20474;-62
2022/11/17 12:31:05;;;;;;;11.57;9.60;;;4.70;99.90;;;;;;5054081;28;20540;-62
2022/11/17 12:34:09;;;;;;;15.60;12.83;;;4.70;99.90;;;;;;5053832;28;20968;-61
2022/11/17 12:36:39;;;;;;;15.23;12.17;;;4.70;99.90;;;;;;5050923;28;20481;-62
2022/11/17 12:39:46;;;;;;;13.87;9.73;;;4.70;99.90;;;;;;5052561;28;20989;-62
2022/11/17 12:42:14;;;;;;;16.63;12.50;;;4.70;99.90;;;;;;5048311;28;20574;-62
2022/11/17 12:44:50;;;;;;;16.00;13.07;;;4.70;99.90;;;;;;5054377;28;20892;-61
2022/11/17 12:47:20;;;;;;;16.07;11.97;;;4.70;99.90;;;;;;5054571;28;20562;-62
2022/11/17 12:50:08;;;;;;;13.00;11.10;;;4.70;99.90;;;;;;5057571;28;20469;-63
2022/11/17 12:52:46;;;;;;;17.20;13.33;;;4.70;99.90;;;;;;5052059;28;20553;-62
2022/11/17 12:55:21;;;;;;;14.43;12.80;;;4.70;99.90;;;;;;5053087;28;20515;-62
2022/11/17 12:57:56;;;;;;;15.33;12.53;;;4.80;99.90;;;;;;5051372;28;20500;-62
2022/11/17 13:00:25;;;;;;;14.90;12.30;;;4.80;99.90;;;;;;5056609;28;20475;-62
2022/11/17 13:03:01;;;;;;;14.87;12.53;;;4.70;99.90;;;;;;5048218;28;20504;-62
2022/11/17 13:05:30;;;;;;;15.80;12.70;;;4.70;99.90;;;;;;5054721;28;20480;-62
2022/11/17 13:08:21;;;;;;;16.80;13.43;;;4.70;99.90;;;;;;5053489;28;20532;-60
2022/11/17 13:10:49;;;;;;;16.20;12.73;;;4.70;99.90;;;;;;5053580;28;20476;-62
2022/11/17 13:13:19;;;;;;;15.13;11.83;;;4.80;99.90;;;;;;5053427;28;20491;-62
2022/11/17 13:15:50;;;;;;;15.20;12.27;;;4.80;99.90;;;;;;5054461;28;20473;-62
2022/11/17 13:18:29;;;;;;;15.03;12.37;;;4.80;99.90;;;;;;5053550;28;20472;-62
2022/11/17 13:20:58;;;;;;;15.30;12.20;;;4.80;99.90;;;;;;5054552;28;20543;-62
2022/11/17 13:23:28;;;;;;;14.93;12.07;;;4.70;99.90;;;;;;5056166;28;20482;-62
2022/11/17 13:26:20;;;;;;;14.60;12.07;;;4.70;99.90;;;;;;5052664;28;21009;-61
2022/11/17 13:28:49;;;;;;;15.90;12.73;;;4.70;99.90;;;;;;5052206;28;20489;-62
2022/11/17 13:31:19;;;;;;;15.27;12.03;;;4.70;99.90;;;;;;5051496;28;20493;-63
2022/11/17 13:33:56;;;;;;;14.87;11.80;;;4.80;99.90;;;;;;5053275;28;20488;-63
2022/11/17 13:36:26;;;;;;;10.83;8.37;;;4.70;99.90;;;;;;5055602;28;20855;-62
2022/11/17 13:38:59;;;;;;;15.60;12.00;;;4.70;99.90;;;;;;5053350;28;21086;-62